Time;durP1;ratioP1;P1;durP2;ratioP2;P2;SDS_P1;SDS_P2;PMS_P1;PMS_P2;Temp;Humidity;BMP_temperature;BMP_pressure;BME280_temperature;BME280_humidity;BME280_pressure;Samples;Min_cycle;Max_cycle;Signal;HPM_P1;HPM_P2
2022/08/13 00:01:11;;;;;;;;;;;;;;;22.46;58.08;101703.81;4917045;28;119674;-83
2022/08/13 00:03:40;;;;;;;;;;;;;;;22.45;58.07;101699.47;4908790;28;120172;-83
2022/08/13 00:06:08;;;;;;;;;;;;;;;22.45;58.18;101705.06;4896962;28;120118;-83
2022/08/13 00:08:35;;;;;;;;;;;;;;;22.44;58.47;101702.78;4903840;28;119996;-82
2022/08/13 00:11:01;;;;;;;;;;;;;;;22.43;58.58;101696.44;4899590;28;121427;-82
2022/08/13 00:13:27;;;;;;;;;;;;;;;22.44;58.77;101697.19;4911831;28;120116;-82
2022/08/13 00:15:53;;;;;;;;;;;;;;;22.45;58.94;101695.91;4900637;28;119697;-83
2022/08/13 00:18:19;;;;;;;;;;;;;;;22.45;59.05;101687.53;4902485;28;120084;-83
2022/08/13 00:20:51;;;;;;;;;;;;;;;22.44;58.96;101686.78;4915476;28;119857;-81
2022/08/13 00:23:18;;;;;;;;;;;;;;;22.44;59.21;101683.22;4882124;28;119829;-82
2022/08/13 00:25:44;;;;;;;;;;;;;;;22.43;59.04;101685.25;4903869;28;121561;-82
2022/08/13 00:28:10;;;;;;;;;;;;;;;22.41;59.30;101682.22;4915922;28;119762;-82
2022/08/13 00:30:38;;;;;;;;;;;;;;;22.41;59.18;101687.81;4914456;28;119807;-82
2022/08/13 00:33:05;;;;;;;;;;;;;;;22.42;59.62;101689.31;4897688;28;119795;-81
2022/08/13 00:35:32;;;;;;;;;;;;;;;22.41;59.45;101685.00;4895633;28;119649;-83
2022/08/13 00:37:57;;;;;;;;;;;;;;;22.40;59.54;101682.72;4904347;28;119680;-84
2022/08/13 00:40:25;;;;;;;;;;;;;;;22.41;59.79;101687.03;4908546;28;119726;-83
2022/08/13 00:42:52;;;;;;;;;;;;;;;22.40;59.93;101680.69;4909255;28;120475;-83
2022/08/13 00:45:18;;;;;;;;;;;;;;;22.41;60.07;101687.03;4923090;28;120422;-83
2022/08/13 00:50:28;;;;;;;;;;;;;;;22.41;60.46;101678.66;4916438;28;119590;-82
2022/08/13 00:52:53;;;;;;;;;;;;;;;22.40;60.80;101680.69;4913924;28;121405;-83
2022/08/13 00:55:20;;;;;;;;;;;;;;;22.41;61.04;101687.81;4907339;28;120526;-83
2022/08/13 00:57:48;;;;;;;;;;;;;;;22.42;61.22;101680.94;4889395;28;120050;-82
2022/08/13 01:00:16;;;;;;;;;;;;;;;22.44;61.40;101686.00;4894979;28;119868;-83
2022/08/13 01:02:43;;;;;;;;;;;;;;;22.46;61.61;101686.25;4892728;28;120378;-82
2022/08/13 01:05:09;;;;;;;;;;;;;;;22.46;62.03;101675.84;4884421;28;122478;-82
2022/08/13 01:07:37;;;;;;;;;;;;;;;22.40;62.04;101680.69;4907008;28;120021;-83
2022/08/13 01:10:03;;;;;;;;;;;;;;;22.45;62.37;101684.75;4904694;28;121532;-82
2022/08/13 01:12:29;;;;;;;;;;;;;;;22.43;62.56;101679.66;4903554;28;119975;-82
2022/08/13 01:14:56;;;;;;;;;;;;;;;22.44;62.47;101692.38;4902614;28;119953;-82
2022/08/13 01:17:23;;;;;;;;;;;;;;;22.44;62.84;101689.56;4890367;28;119911;-82
2022/08/13 01:19:49;;;;;;;;;;;;;;;22.43;62.56;101685.25;4897846;28;121787;-82
2022/08/13 01:22:15;;;;;;;;;;;;;;;22.41;62.80;101687.81;4911584;28;120488;-82
2022/08/13 01:24:42;;;;;;;;;;;;;;;22.39;63.02;101684.75;4904032;28;120690;-82
2022/08/13 01:27:09;;;;;;;;;;;;;;;22.39;63.18;101689.59;4886272;28;119957;-82
2022/08/13 01:29:36;;;;;;;;;;;;;;;22.38;62.82;101686.03;4900513;28;120351;-82
2022/08/13 01:32:02;;;;;;;;;;;;;;;22.38;62.92;101680.44;4917509;28;119624;-82
2022/08/13 01:34:31;;;;;;;;;;;;;;;22.37;62.86;101676.13;4900925;28;119984;-82
2022/08/13 01:36:57;;;;;;;;;;;;;;;22.37;62.77;101681.72;4912013;28;119580;-82
2022/08/13 01:39:23;;;;;;;;;;;;;;;22.37;62.69;101676.13;4909587;28;120210;-82
2022/08/13 01:41:48;;;;;;;;;;;;;;;22.37;62.71;101676.13;4897055;28;119607;-82
2022/08/13 01:44:15;;;;;;;;;;;;;;;22.35;62.71;101670.28;4913084;28;120218;-83
2022/08/13 01:52:10;;;;;;;;;;;;;;;22.29;63.09;101673.09;4893518;28;120260;-81
2022/08/13 01:54:36;;;;;;;;;;;;;;;22.30;62.86;101671.81;4894044;28;119685;-82
2022/08/13 01:57:04;;;;;;;;;;;;;;;22.29;62.79;101672.31;4908737;28;120454;-82
2022/08/13 01:59:31;;;;;;;;;;;;;;;22.28;62.84;101668.00;4908530;28;120252;-82
2022/08/13 02:01:57;;;;;;;;;;;;;;;22.26;62.64;101667.75;4916487;28;120530;-82
2022/08/13 02:04:25;;;;;;;;;;;;;;;22.25;63.31;101664.19;4894813;28;120201;-83
2022/08/13 02:06:51;;;;;;;;;;;;;;;22.25;63.17;101661.41;4898810;28;120272;-82
2022/08/13 02:09:17;;;;;;;;;;;;;;;22.25;63.05;101663.44;4896181;28;119929;-83
2022/08/13 02:11:43;;;;;;;;;;;;;;;22.25;63.29;101663.44;4910090;28;119754;-83
2022/08/13 02:14:09;;;;;;;;;;;;;;;22.24;63.27;101662.66;4911429;28;119887;-83
2022/08/13 02:16:35;;;;;;;;;;;;;;;22.23;63.29;101660.34;4907693;28;119662;-83
2022/08/13 02:19:02;;;;;;;;;;;;;;;22.21;63.39;101660.09;4913341;28;120768;-83
2022/08/13 02:21:32;;;;;;;;;;;;;;;22.20;63.46;101655.78;4894576;28;120264;-82
2022/08/13 02:23:58;;;;;;;;;;;;;;;22.18;63.39;101655.53;4910666;28;120184;-83
2022/08/13 02:26:28;;;;;;;;;;;;;;;22.16;63.12;101661.63;4895871;28;121370;-83
2022/08/13 02:28:54;;;;;;;;;;;;;;;22.12;63.03;101660.38;4905096;28;120052;-83
2022/08/13 02:31:21;;;;;;;;;;;;;;;22.08;63.02;101651.47;4915380;28;119574;-82
2022/08/13 02:33:47;;;;;;;;;;;;;;;22.02;62.99;101652.22;4906080;28;120180;-83
2022/08/13 02:36:22;;;;;;;;;;;;;;;21.99;62.93;101649.66;4894959;28;120163;-82
2022/08/13 02:38:55;;;;;;;;;;;;;;;21.96;63.12;101653.47;4887965;28;119793;-83
2022/08/13 02:41:38;;;;;;;;;;;;;;;21.93;63.24;101655.25;4893744;28;120366;-83
2022/08/13 02:44:05;;;;;;;;;;;;;;;21.92;63.26;101656.50;4920760;28;120683;-82
2022/08/13 02:46:30;;;;;;;;;;;;;;;21.90;63.35;101649.91;4900041;28;120998;-82
2022/08/13 02:48:58;;;;;;;;;;;;;;;21.87;63.29;101648.91;4880585;28;119921;-82
2022/08/13 02:51:25;;;;;;;;;;;;;;;21.85;63.28;101636.72;4860366;28;120872;-83
2022/08/13 02:53:52;;;;;;;;;;;;;;;21.81;63.03;101648.13;4892130;28;119865;-83
2022/08/13 02:56:18;;;;;;;;;;;;;;;21.79;63.25;101649.91;4910898;28;120017;-83
2022/08/13 02:58:43;;;;;;;;;;;;;;;21.74;63.16;101646.59;4897475;28;119550;-84
2022/08/13 03:01:23;;;;;;;;;;;;;;;21.72;62.88;101651.16;4905119;28;119760;-83
2022/08/13 03:03:48;;;;;;;;;;;;;;;21.71;63.10;101660.78;4878490;28;119945;-83
2022/08/13 03:06:17;;;;;;;;;;;;;;;21.70;63.59;101659.28;4896092;28;120152;-82
2022/08/13 03:08:43;;;;;;;;;;;;;;;21.70;64.16;101653.69;4896806;28;120324;-82
2022/08/13 03:11:08;;;;;;;;;;;;;;;;;;4916331;28;119778;-82
2022/08/13 03:13:36;;;;;;;;;;;;;;;21.72;64.35;101660.28;4896634;28;119844;-82
2022/08/13 03:16:03;;;;;;;;;;;;;;;21.72;64.64;101651.91;4887299;28;120239;-82
2022/08/13 03:18:29;;;;;;;;;;;;;;;21.73;64.62;101653.44;4914503;28;122253;-82
2022/08/13 03:20:55;;;;;;;;;;;;;;;21.74;64.61;101649.38;4903299;28;119656;-82
2022/08/13 03:23:23;;;;;;;;;;;;;;;21.76;64.84;101652.41;4894030;28;120881;-82
2022/08/13 03:25:49;;;;;;;;;;;;;;;21.76;64.89;101651.66;4861055;28;119864;-82
2022/08/13 03:28:15;;;;;;;;;;;;;;;21.76;64.81;101660.03;4893495;28;120172;-83
2022/08/13 03:30:41;;;;;;;;;;;;;;;21.75;65.05;101652.94;4886911;28;121579;-82
2022/08/13 03:33:08;;;;;;;;;;;;;;;21.74;65.04;101654.97;4911402;28;119830;-82
2022/08/13 03:35:37;;;;;;;;;;;;;;;21.74;65.10;101659.78;4894577;28;119973;-82
2022/08/13 03:38:07;;;;;;;;;;;;;;;21.74;65.28;101659.78;4886905;28;121338;-83
2022/08/13 03:43:18;;;;;;;;;;;;;;;21.74;65.46;101657.00;4881975;28;121300;-82
2022/08/13 03:45:44;;;;;;;;;;;;;;;21.73;65.37;101661.81;4910613;28;120378;-82
2022/08/13 03:48:12;;;;;;;;;;;;;;;21.72;65.56;101653.94;4909039;28;119743;-83
2022/08/13 03:50:40;;;;;;;;;;;;;;;21.72;65.44;101651.16;4909678;28;119476;-81
2022/08/13 03:53:06;;;;;;;;;;;;;;;21.73;65.40;101652.69;4899009;28;119581;-84
2022/08/13 03:55:33;;;;;;;;;;;;;;;21.72;65.39;101651.91;4900404;28;119626;-83
2022/08/13 03:58:00;;;;;;;;;;;;;;;21.72;65.37;101654.69;4911706;28;121090;-82
2022/08/13 04:00:30;;;;;;;;;;;;;;;;;;4910432;28;120016;-82
2022/08/13 04:02:56;;;;;;;;;;;;;;;21.66;64.25;101658.75;4909790;28;120294;-83
2022/08/13 04:05:22;;;;;;;;;;;;;;;21.59;63.95;101653.69;4913303;28;119425;-84
2022/08/13 04:07:50;;;;;;;;;;;;;;;21.52;63.62;101652.13;4913431;28;119589;-83
2022/08/13 04:10:16;;;;;;;;;;;;;;;21.47;63.57;101649.31;4914650;28;120149;-83
2022/08/13 04:12:42;;;;;;;;;;;;;;;21.43;63.49;101653.13;4913321;28;120108;-83
2022/08/13 04:15:08;;;;;;;;;;;;;;;21.39;63.56;101651.84;4908195;28;119674;-82
2022/08/13 04:17:37;;;;;;;;;;;;;;;21.36;63.64;101661.97;4917194;28;119940;-82
2022/08/13 04:20:04;;;;;;;;;;;;;;;21.31;63.40;101651.56;4934268;28;119415;-84
2022/08/13 04:22:30;;;;;;;;;;;;;;;21.27;63.44;101650.25;4915566;28;120075;-82
2022/08/13 04:24:55;;;;;;;;;;;;;;;21.25;63.53;101650.78;4896443;28;121583;-83
2022/08/13 04:27:21;;;;;;;;;;;;;;;21.25;63.72;101652.78;4906587;28;119766;-82
2022/08/13 04:29:48;;;;;;;;;;;;;;;21.26;63.66;101655.09;4892976;28;120105;-81
2022/08/13 04:32:13;;;;;;;;;;;;;;;21.27;64.08;101653.81;4909697;28;119814;-83
2022/08/13 04:34:39;;;;;;;;;;;;;;;21.30;64.25;101650.03;4894874;28;119906;-82
2022/08/13 04:37:07;;;;;;;;;;;;;;;21.32;64.15;101641.94;4911174;28;119750;-84
2022/08/13 04:39:33;;;;;;;;;;;;;;;21.34;64.05;101656.16;4908893;28;120032;-82
2022/08/13 04:42:00;;;;;;;;;;;;;;;21.38;64.47;101651.06;4896396;28;119681;-84
2022/08/13 04:44:25;;;;;;;;;;;;;;;21.42;64.56;101651.59;4897203;28;120389;-83
2022/08/13 04:46:51;;;;;;;;;;;;;;;21.47;64.32;101654.91;4900859;28;119480;-83
2022/08/13 04:49:16;;;;;;;;;;;;;;;21.50;64.29;101651.84;4899906;28;120559;-83
2022/08/13 04:51:42;;;;;;;;;;;;;;;21.53;64.26;101647.28;4904251;28;121027;-84
2022/08/13 04:54:08;;;;;;;;;;;;;;;21.55;64.25;101648.34;4909353;28;120698;-84
2022/08/13 04:56:33;;;;;;;;;;;;;;;21.58;64.16;101652.91;4916234;28;119667;-83
2022/08/13 04:59:00;;;;;;;;;;;;;;;21.61;64.19;101643.53;4901262;28;122480;-83
2022/08/13 05:01:26;;;;;;;;;;;;;;;21.66;64.50;101642.00;4911990;28;119625;-81
2022/08/13 05:03:52;;;;;;;;;;;;;;;21.70;64.36;101634.91;4915567;28;120342;-81
2022/08/13 05:06:19;;;;;;;;;;;;;;;21.76;64.27;101640.50;4915339;28;119636;-80
2022/08/13 05:08:46;;;;;;;;;;;;;;;21.80;64.12;101640.25;4915504;28;119760;-83
2022/08/13 05:11:12;;;;;;;;;;;;;;;21.83;64.12;101640.00;4896265;28;121438;-85
2022/08/13 05:13:38;;;;;;;;;;;;;;;21.87;64.03;101639.75;4904084;28;119815;-82
2022/08/13 05:16:06;;;;;;;;;;;;;;;21.92;63.93;101642.53;4915949;28;119591;-82
2022/08/13 05:18:45;;;;;;;;;;;;;;;21.97;64.11;101644.56;4924799;28;122042;-82
2022/08/13 05:21:12;;;;;;;;;;;;;;;22.04;64.08;101646.91;4938308;28;119614;-82
2022/08/13 05:23:38;;;;;;;;;;;;;;;22.11;63.70;101642.09;4920355;28;119638;-82
2022/08/13 05:26:04;;;;;;;;;;;;;;;22.17;63.96;101645.63;4905644;28;119723;-83
2022/08/13 05:28:31;;;;;;;;;;;;;;;22.22;63.80;101639.28;4895180;28;120156;-83
2022/08/13 05:30:57;;;;;;;;;;;;;;;22.27;63.85;101642.09;4895414;28;120249;-83
2022/08/13 05:33:24;;;;;;;;;;;;;;;22.35;63.90;101636.72;4904443;28;120038;-84
2022/08/13 05:35:55;;;;;;;;;;;;;;;22.40;63.80;101647.13;4897516;28;119730;-83
2022/08/13 05:38:22;;;;;;;;;;;;;;;22.45;63.91;101640.00;4897080;28;120271;-83
2022/08/13 05:40:55;;;;;;;;;;;;;;;22.50;63.72;101631.63;4895756;28;119781;-82
2022/08/13 05:43:23;;;;;;;;;;;;;;;22.57;63.99;101636.69;4900549;28;119873;-82
2022/08/13 05:45:49;;;;;;;;;;;;;;;22.61;63.49;101640.00;4907360;28;119890;-82
2022/08/13 05:48:15;;;;;;;;;;;;;;;22.66;63.55;101639.22;4914942;28;120040;-83
2022/08/13 05:50:44;;;;;;;;;;;;;;;22.72;63.45;101638.47;4893714;28;123054;-83
2022/08/13 05:53:10;;;;;;;;;;;;;;;22.79;63.70;101638.69;4897580;28;120675;-84
2022/08/13 05:55:40;;;;;;;;;;;;;;;22.86;63.27;101626.97;4914789;28;119801;-83
2022/08/13 05:58:07;;;;;;;;;;;;;;;22.93;63.66;101634.06;4897277;28;121457;-83
2022/08/13 06:03:27;;;;;;;;;;;;;;;23.04;63.15;101624.88;4903776;28;120117;-82
2022/08/13 06:05:57;;;;;;;;;;;;;;;23.08;62.84;101637.34;4882043;28;120759;-83
2022/08/13 06:08:27;;;;;;;;;;;;;;;23.12;62.92;101625.88;4880122;28;120693;-83
2022/08/13 06:10:52;;;;;;;;;;;;;;;23.16;62.85;101627.09;4893183;28;120259;-82
2022/08/13 06:13:18;;;;;;;;;;;;;;;23.21;62.80;101633.97;4882358;28;120924;-83
2022/08/13 06:15:44;;;;;;;;;;;;;;;23.24;62.93;101630.91;4905061;28;120805;-82
2022/08/13 06:18:11;;;;;;;;;;;;;;;23.28;62.83;101627.81;4909672;28;120528;-84
2022/08/13 06:20:40;;;;;;;;;;;;;;;23.33;62.26;101629.06;4932592;28;120463;-83
2022/08/13 06:23:06;;;;;;;;;;;;;;;23.38;62.48;101633.88;4930828;28;120491;-84
2022/08/13 06:25:34;;;;;;;;;;;;;;;23.42;62.11;101637.16;4892463;28;122621;-82
2022/08/13 06:28:00;;;;;;;;;;;;;;;23.45;62.05;101634.09;4933916;28;120786;-82
2022/08/13 06:30:30;;;;;;;;;;;;;;;23.48;61.92;101623.91;4911947;28;121680;-83
2022/08/13 06:33:02;;;;;;;;;;;;;;;23.52;61.36;101629.97;4927615;28;120805;-81
2022/08/13 06:35:31;;;;;;;;;;;;;;;23.57;61.56;101629.22;4894521;28;121347;-82
2022/08/13 06:37:57;;;;;;;;;;;;;;;23.61;61.32;101631.72;4892719;28;120908;-82
2022/08/13 06:40:23;;;;;;;;;;;;;;;23.64;61.18;101625.09;4893221;28;121007;-83
2022/08/13 06:43:09;;;;;;;;;;;;;;;23.69;60.84;101630.69;4904271;28;121248;-82
2022/08/13 06:45:36;;;;;;;;;;;;;;;23.75;60.38;101625.78;4892138;28;121648;-82
2022/08/13 06:48:02;;;;;;;;;;;;;;;23.79;61.11;101628.31;4885398;28;121170;-83
2022/08/13 06:50:28;;;;;;;;;;;;;;;23.84;60.68;101627.50;4908277;28;121638;-82
2022/08/13 06:52:54;;;;;;;;;;;;;;;23.87;60.35;101641.22;4893604;28;121747;-83
2022/08/13 06:55:20;;;;;;;;;;;;;;;23.91;60.06;101637.41;4879996;28;121248;-83
2022/08/13 06:57:51;;;;;;;;;;;;;;;23.96;59.44;101636.59;4912359;28;122301;-83
2022/08/13 07:00:17;;;;;;;;;;;;;;;23.98;58.99;101634.03;4909293;28;120252;-82
2022/08/13 07:02:44;;;;;;;;;;;;;;;24.01;58.92;101633.75;4897269;28;121756;-82
2022/08/13 07:05:10;;;;;;;;;;;;;;;24.05;59.40;101631.41;4912316;28;121298;-84
2022/08/13 07:07:44;;;;;;;;;;;;;;;24.10;59.71;101633.41;4894270;28;121917;-82
2022/08/13 07:10:10;;;;;;;;;;;;;;;24.15;59.26;101624.19;4912656;28;121712;-82
2022/08/13 07:12:41;;;;;;;;;;;;;;;24.23;59.29;101627.19;4892823;28;121289;-82
2022/08/13 07:15:14;;;;;;;;;;;;;;;24.29;58.21;101629.94;4892073;28;121406;-84
2022/08/13 07:18:00;;;;;;;;;;;;;;;24.35;57.80;101633.47;4895522;28;121819;-83
2022/08/13 07:20:25;;;;;;;;;;;;;;;24.40;58.33;101633.44;4892012;28;121897;-82
2022/08/13 07:22:53;;;;;;;;;;;;;;;24.44;57.61;101633.91;4892908;28;121463;-82
2022/08/13 07:25:20;;;;;;;;;;;;;;;24.47;57.75;101635.63;4908278;28;123561;-82
2022/08/13 07:27:46;;;;;;;;;;;;;;;24.53;57.18;101640.44;4927101;28;122157;-82
2022/08/13 07:30:14;;;;;;;;;;;;;;;24.58;57.49;101636.81;4893381;28;122157;-82
2022/08/13 07:32:40;;;;;;;6.25;3.70;;;;;;;24.61;58.21;101630.16;4913478;28;121616;-82
2022/08/13 07:35:08;;;;;;;4.50;3.55;;;;;;;24.67;57.54;101639.28;4910599;28;121529;-82
2022/08/13 07:37:35;;;;;;;9.65;3.50;;;;;;;24.77;56.60;101637.63;4904947;28;122699;-83
2022/08/13 07:40:31;;;;;;;5.50;3.47;;;;;;;24.85;56.52;101635.00;4891132;28;121757;-82
2022/08/13 07:42:58;;;;;;;6.63;3.47;;;;;;;24.90;56.75;101634.94;4910092;28;121684;-83
2022/08/13 07:45:24;;;;;;;6.85;3.30;;;;;;;24.91;56.77;101618.84;4893354;28;123044;-83
2022/08/13 07:48:14;;;;;;;4.05;3.58;;;;;;;25.05;56.93;101638.06;4906042;28;122270;-82
2022/08/13 07:50:42;;;;;;;5.68;2.92;;;;;;;25.11;55.92;101632.41;4894646;28;121612;-82
2022/08/13 07:53:10;;;;;;;5.53;3.08;;;;;;;25.18;55.59;101636.66;4925663;28;122752;-84
2022/08/13 07:55:36;;;;;;;4.20;3.38;;;;;;;25.35;56.14;101645.63;4914787;28;122338;-84
2022/08/13 07:58:02;;;;;;;5.50;2.88;;;;;;;25.52;55.08;101648.94;4924841;28;121792;-82
2022/08/13 08:00:29;;;;;;;3.75;2.65;;;;;;;25.76;54.88;101659.34;4910659;28;121950;-82
2022/08/13 08:03:01;;;;;;;5.65;2.97;;;;;;;26.08;54.14;101650.16;4878983;28;123157;-82
2022/08/13 08:05:31;;;;;;;6.63;2.90;;;;;;;26.53;52.31;101656.56;4892502;28;123434;-82
2022/08/13 08:07:59;;;;;;;3.53;2.75;;;;;;;26.96;50.46;101654.69;4885629;28;121931;-82
2022/08/13 08:10:26;;;;;;;4.82;2.50;;;;;;;27.30;49.87;101649.16;4891588;28;121819;-82
2022/08/13 08:12:54;;;;;;;5.25;2.50;;;;;;;27.59;48.69;101648.00;4890785;28;122802;-84
2022/08/13 08:15:23;;;;;;;4.50;2.70;;;;;;;27.96;47.89;101663.03;4899644;28;122050;-83
2022/08/13 08:17:49;;;;;;;2.75;2.40;;;;;;;28.16;48.00;101650.25;4902196;28;122183;-84
2022/08/13 08:20:21;;;;;;;4.78;2.42;;;;;;;28.40;47.83;101649.91;4886065;28;122144;-83
2022/08/13 08:22:50;;;;;;;5.80;2.90;;;;;;;28.61;45.98;101649.84;4894294;28;121956;-83
2022/08/13 08:25:17;;;;;;;3.65;2.53;;;;;;;28.85;46.11;101654.31;4898696;28;122093;-83
2022/08/13 08:27:44;;;;;;;4.53;2.70;;;;;;;29.06;46.37;101651.41;4913185;28;122149;-83
2022/08/13 08:30:13;;;;;;;;;;;;;;;29.38;45.72;101665.13;4913123;28;122216;-85
2022/08/13 08:32:39;;;;;;;;;;;;;;;29.57;44.88;101660.66;4912158;28;122311;-83
2022/08/13 08:35:05;;;;;;;;;;;;;;;29.70;44.54;101667.50;4901214;28;121979;-82
2022/08/13 08:43:10;;;;;;;;;;;;;;;29.89;43.94;101668.66;4894577;28;122123;-84
2022/08/13 08:45:35;;;;;;;;;;;;;;;30.00;44.09;101675.25;4906992;28;122627;-83
2022/08/13 08:48:02;;;;;;;;;;;;;;;30.07;43.44;101671.72;4911765;28;121996;-82
2022/08/13 08:50:28;;;;;;;;;;;;;;;30.10;42.64;101673.41;4910629;28;122056;-84
2022/08/13 08:55:40;;;;;;;;;;;;;;;30.27;41.75;101673.59;4926397;28;122330;-82
2022/08/13 08:58:07;;;;;;;;;;;;;;;30.37;41.84;101671.72;4909927;28;122510;-83
2022/08/13 09:00:36;;;;;;;4.35;2.25;;;;;;;30.47;40.09;101675.47;4914315;28;123584;-83
2022/08/13 09:03:04;;;;;;;4.82;2.20;;;;;;;30.60;39.26;101677.34;4904476;28;122147;-82
2022/08/13 09:05:31;;;;;;;4.85;2.03;;;;;;;30.77;39.00;101686.03;4922154;28;122828;-82
2022/08/13 09:08:01;;;;;;;3.58;2.05;;;;;;;30.83;39.17;101666.00;4910011;28;122362;-82
2022/08/13 09:10:27;;;;;;;5.00;2.00;;;;;;;30.95;38.69;101669.91;4907223;28;122020;-83
2022/08/13 09:12:53;;;;;;;2.53;2.08;;;;;;;31.02;38.69;101671.97;4898964;28;122534;-82
2022/08/13 09:15:22;;;;;;;2.70;2.10;;;;;;;31.12;38.49;101672.13;4892736;28;122338;-82
2022/08/13 09:17:50;;;;;;;2.30;2.00;;;;;;;31.16;38.60;101675.31;4902554;28;124087;-83
2022/08/13 09:20:19;;;;;;;2.88;2.15;;;;;;;31.23;36.30;101673.78;4901852;28;122091;-81
2022/08/13 09:22:46;;;;;;;4.53;1.95;;;;;;;31.25;35.80;101668.34;4904612;28;122142;-83
2022/08/13 09:25:16;;;;;;;3.00;1.80;;;;;;;31.30;36.57;101673.03;4901061;28;123021;-83
2022/08/13 09:27:46;;;;;;;4.18;2.13;;;;;;;31.22;36.35;101666.63;4915249;28;121872;-82
2022/08/13 09:30:13;;;;;;;4.07;2.10;;;;;;;31.26;37.25;101672.69;4901726;28;122471;-82
2022/08/13 09:32:39;;;;;;;3.20;2.08;;;;;;;31.33;36.98;101666.97;4901421;28;123009;-83
2022/08/13 09:35:06;;;;;;;2.75;1.80;;;;;;;31.40;35.98;101665.41;4901603;28;121961;-83
2022/08/13 09:37:33;;;;;;;2.67;1.73;;;;;;;31.41;35.15;101662.00;4887059;28;122302;-83
2022/08/13 09:40:08;;;;;;;2.13;1.83;;;;;;;31.45;36.06;101659.50;4898937;28;122166;-83
2022/08/13 09:43:07;;;;;;;3.40;1.88;;;;;;;31.55;35.68;101662.50;4902671;28;122875;-83
2022/08/13 09:45:39;;;;;;;3.35;2.00;;;;;;;31.55;35.17;101661.75;4909479;28;122127;-83
2022/08/13 09:48:31;;;;;;;7.03;1.63;;;;;;;31.56;34.47;101657.56;4901297;28;122288;-82
2022/08/13 09:50:57;;;;;;;3.72;1.70;;;;;;;31.58;34.46;101652.81;4905673;28;122172;-82
2022/08/13 09:53:25;;;;;;;3.42;1.75;;;;;;;31.61;33.88;101657.34;4899058;28;124789;-83
2022/08/13 09:55:54;;;;;;;2.53;1.90;;;;;;;31.65;33.92;101651.28;4901496;28;122459;-84
2022/08/13 09:58:22;;;;;;;2.63;1.80;;;;;;;31.63;33.99;101640.50;4907753;28;122133;-83
2022/08/13 10:00:49;;;;;;;2.75;1.50;;;;;;;31.53;32.97;101636.03;4904843;28;122771;-83
2022/08/13 10:03:17;;;;;;;2.60;1.80;;;;;;;31.44;33.91;101643.06;4875738;28;122322;-83
2022/08/13 10:06:03;;;;;;;3.42;1.95;;;;;;;31.48;32.87;101646.28;4904171;28;122272;-83
2022/08/13 10:08:28;;;;;;;4.47;1.98;;;;;;;31.56;31.72;101649.81;4884826;28;122561;-83
2022/08/13 10:10:54;;;;;;;1.50;1.40;;;;;;;31.60;31.51;101644.50;4906703;28;122020;-83
2022/08/13 10:13:20;;;;;;;3.88;1.73;;;;;;;31.58;30.10;101635.81;4906699;28;122076;-83
2022/08/13 10:16:03;;;;;;;3.30;2.00;;;;;;;31.56;30.82;101649.06;4907146;28;122166;-83
2022/08/13 10:18:31;;;;;;;2.80;1.88;;;;;;;31.56;30.03;101637.72;4906520;28;122589;-83
2022/08/13 10:20:57;;;;;;;3.85;1.67;;;;;;;31.58;31.46;101635.81;4905729;28;123448;-83
2022/08/13 10:23:23;;;;;;;4.90;1.90;;;;;;;31.62;31.06;101636.16;4904439;28;122370;-82
2022/08/13 10:25:56;;;;;;;3.67;1.80;;;;;;;31.57;32.30;101625.81;4902705;28;122395;-82
2022/08/13 10:28:23;;;;;;;2.70;1.88;;;;;;;31.50;31.52;101628.69;4884995;28;123862;-82
2022/08/13 10:30:50;;;;;;;2.15;1.98;;;;;;;31.43;31.19;101618.88;4905954;28;122109;-83
2022/08/13 10:33:16;;;;;;;2.70;1.58;;;;;;;31.55;31.83;101625.63;4902972;28;122227;-83
2022/08/13 10:35:52;;;;;;;5.07;1.70;;;;;;;31.57;32.01;101622.97;4903204;28;122309;-83
2022/08/13 10:38:25;;;;;;;3.72;1.85;;;;;;;31.58;31.84;101623.72;4902502;28;122039;-83
2022/08/13 10:40:51;;;;;;;3.17;1.88;;;;;;;31.58;30.65;101618.81;4887105;28;122568;-83
2022/08/13 10:43:17;;;;;;;4.18;1.73;;;;;;;31.53;30.07;101621.88;4901932;28;122685;-83
2022/08/13 10:45:46;;;;;;;2.75;1.70;;;;;;;31.44;31.07;101609.06;4901139;28;122082;-82
2022/08/13 10:48:12;;;;;;;3.00;1.60;;;;;;;31.45;32.42;101610.56;4901673;28;124249;-82
2022/08/13 10:50:39;;;;;;;2.60;1.80;;;;;;;31.43;33.15;101607.53;4907097;28;122537;-84
2022/08/13 10:53:05;;;;;;;3.35;2.00;;;;;;;31.37;31.55;101599.28;4900583;28;123330;-82
2022/08/13 10:55:31;;;;;;;2.20;2.00;;;;;;;31.39;32.68;101601.53;4902059;28;122019;-83
2022/08/13 10:57:58;;;;;;;3.97;2.00;;;;;;;31.36;31.48;101597.03;4905523;28;122030;-83
2022/08/13 11:00:25;;;;;;;5.45;2.00;;;;;;;31.34;31.63;101582.66;4901078;28;122557;-83
2022/08/13 11:02:50;;;;;;;3.35;1.85;;;;;;;31.43;32.01;101601.88;4900120;28;122571;-82
2022/08/13 11:05:25;;;;;;;3.17;1.83;;;;;;;31.43;31.36;101596.22;4885630;28;122451;-82
2022/08/13 11:07:56;;;;;;;2.47;1.70;;;;;;;31.37;31.28;101590.03;4901753;28;122292;-82
2022/08/13 11:10:22;;;;;;;3.28;1.83;;;;;;;31.48;30.63;101589.59;4900593;28;122339;-82
2022/08/13 11:12:52;;;;;;;2.33;1.80;;;;;;;31.53;31.09;101591.44;4903699;28;122335;-83
2022/08/13 11:15:20;;;;;;;4.38;1.70;;;;;;;31.57;30.95;101591.78;4886102;28;122582;-82
2022/08/13 11:17:50;;;;;;;6.40;1.90;;;;;;;31.62;30.13;101604.97;4885428;28;122054;-83
2022/08/13 11:20:19;;;;;;;5.72;1.70;;;;;;;31.65;30.98;101589.63;4905547;28;124601;-82
2022/08/13 11:22:50;;;;;;;2.80;1.83;;;;;;;31.75;30.24;101590.53;4902868;28;122080;-82
2022/08/13 11:25:15;;;;;;;2.13;1.90;;;;;;;31.75;29.52;101599.06;4902711;28;122425;-82
2022/08/13 11:27:41;;;;;;;4.80;2.08;;;;;;;31.74;29.82;101585.44;4917903;28;122424;-83
2022/08/13 11:30:09;;;;;;;3.10;1.77;;;;;;;31.79;30.60;101592.22;4898459;28;122280;-82
2022/08/13 11:32:35;;;;;;;4.18;2.30;;;;;;;31.69;30.05;101575.78;4882280;28;122015;-83
2022/08/13 11:35:02;;;;;;;2.10;1.90;;;;;;;31.65;30.83;101586.78;4889015;28;124749;-83
2022/08/13 11:37:27;;;;;;;2.38;1.80;;;;;;;31.64;30.17;101593.78;4899423;28;122604;-83
2022/08/13 11:39:53;;;;;;;2.20;1.70;;;;;;;31.64;30.07;101576.78;4887026;28;124105;-82
2022/08/13 11:42:19;;;;;;;4.38;2.25;;;;;;;31.77;32.10;101603.38;4901979;28;122268;-82
2022/08/13 11:44:45;;;;;;;6.03;2.15;;;;;;;31.75;33.21;101582.03;4902305;28;122112;-83
2022/08/13 11:47:10;;;;;;;7.78;2.22;;;;;;;31.78;33.76;101582.19;4899411;28;123493;-83
2022/08/13 11:49:36;;;;;;;3.50;2.28;;;;;;;31.79;34.93;101572.34;4886181;28;122108;-84
2022/08/13 11:52:02;;;;;;;5.07;2.50;;;;;;;31.85;34.63;101575.69;4886702;28;122334;-82
2022/08/13 11:54:28;;;;;;;2.50;2.30;;;;;;;31.90;34.39;101574.69;4899820;28;123990;-82
2022/08/13 11:56:53;;;;;;;2.40;2.20;;;;;;;31.99;33.74;101579.75;4905867;28;122394;-82
2022/08/13 11:59:22;;;;;;;3.95;2.10;;;;;;;32.09;33.28;101574.91;4899267;28;123112;-82
2022/08/13 12:01:47;;;;;;;5.10;2.45;;;;;;;32.23;33.21;101583.88;4904954;28;122252;-82
2022/08/13 12:04:14;;;;;;;4.10;2.13;;;;;;;32.27;34.09;101579.31;4900738;28;122565;-83
2022/08/13 12:06:40;;;;;;;4.85;2.63;;;;;;;32.33;33.98;101582.63;4900272;28;124666;-82
2022/08/13 12:09:06;;;;;;;4.88;2.50;;;;;;;32.28;34.31;101574.38;4902382;28;122042;-83
2022/08/13 12:11:34;;;;;;;3.83;2.20;;;;;;;32.23;34.76;101570.44;4905558;28;122217;-83
2022/08/13 12:14:01;;;;;;;5.68;2.47;;;;;;;32.21;33.55;101563.84;4897921;28;123086;-81
2022/08/13 12:16:27;;;;;;;4.57;2.30;;;;;;;32.16;34.00;101579.00;4904726;28;122575;-82
2022/08/13 12:18:53;;;;;;;6.68;2.30;;;;;;;32.06;34.02;101567.56;4901285;28;122153;-83
2022/08/13 12:21:19;;;;;;;4.03;2.10;;;;;;;32.09;34.64;101569.22;4898372;28;122368;-83
2022/08/13 12:23:44;;;;;;;4.82;2.30;;;;;;;32.12;33.46;101561.63;4903891;28;122441;-82
2022/08/13 12:26:10;;;;;;;5.68;2.05;;;;;;;32.04;33.38;101551.13;4904212;28;123511;-82